createdAt,value
2023-02-06T00:01:36.647Z,57.88
2023-02-06T00:04:04.533Z,64.78
2023-02-06T00:06:32.626Z,58.72
2023-02-06T00:09:00.712Z,67.88
2023-02-06T00:11:28.384Z,71.35
2023-02-06T00:13:55.701Z,63.42
2023-02-06T00:16:28.280Z,60.97
2023-02-06T00:18:56.942Z,61.33
2023-02-06T00:21:26.032Z,72.03
2023-02-06T00:23:58.572Z,60.83
2023-02-06T00:26:26.825Z,71.03
2023-02-06T00:28:54.470Z,82.57
2023-02-06T00:31:22.339Z,69.07
2023-02-06T00:33:49.896Z,74.90
2023-02-06T00:36:17.365Z,80.22
2023-02-06T00:38:44.728Z,61.17
2023-02-06T00:41:12.288Z,57.35
2023-02-06T00:43:39.680Z,64.70
2023-02-06T00:46:06.954Z,57.25
2023-02-06T00:48:34.459Z,55.92
2023-02-06T00:51:01.779Z,65.07
2023-02-06T00:53:29.201Z,50.30
2023-02-06T00:55:56.444Z,63.75
2023-02-06T00:58:23.824Z,51.03
2023-02-06T01:00:52.296Z,66.38
2023-02-06T01:03:19.604Z,55.03
2023-02-06T01:05:47.118Z,50.40
2023-02-06T01:08:14.618Z,59.25
2023-02-06T01:10:43.245Z,61.25
2023-02-06T01:13:11.254Z,50.80
2023-02-06T01:15:39.943Z,50.70
2023-02-06T01:18:07.320Z,70.22
2023-02-06T01:20:34.782Z,42.42
2023-02-06T01:23:02.085Z,58.70
2023-02-06T01:25:31.705Z,53.35
2023-02-06T01:27:59.288Z,67.60
2023-02-06T01:30:26.875Z,57.35
2023-02-06T01:32:54.300Z,44.63
2023-02-06T01:35:21.589Z,54.35
2023-02-06T01:37:49.333Z,59.40
2023-02-06T01:40:17.455Z,66.50
2023-02-06T01:42:44.847Z,49.22
2023-02-06T01:45:28.061Z,58.53
2023-02-06T01:47:59.467Z,60.35
2023-02-06T01:50:27.885Z,53.60
2023-02-06T01:52:56.700Z,56.35
2023-02-06T01:55:24.121Z,52.75
2023-02-06T01:57:52.646Z,55.10
2023-02-06T02:00:20.393Z,58.00
2023-02-06T02:02:49.093Z,53.38
2023-02-06T02:05:17.997Z,57.30
2023-02-06T02:08:01.720Z,51.58
2023-02-06T02:10:32.549Z,58.60
2023-02-06T02:13:00.441Z,51.78
2023-02-06T02:16:03.463Z,64.47
2023-02-06T02:18:35.877Z,51.83
2023-02-06T02:21:23.466Z,54.70
2023-02-06T02:24:08.571Z,58.20
2023-02-06T02:26:35.872Z,39.90
2023-02-06T02:29:21.117Z,49.17
2023-02-06T02:31:57.682Z,50.67
2023-02-06T02:34:40.130Z,50.60
2023-02-06T02:37:28.881Z,42.95
2023-02-06T02:40:12.399Z,47.53
2023-02-06T02:43:25.350Z,40.50
2023-02-06T02:46:33.877Z,46.83
2023-02-06T02:49:23.692Z,52.78
2023-02-06T02:51:52.352Z,47.58
2023-02-06T02:54:19.873Z,45.20
2023-02-06T02:56:47.491Z,49.78
2023-02-06T02:59:36.392Z,49.92
2023-02-06T03:02:06.231Z,46.65
2023-02-06T03:04:41.451Z,54.65
2023-02-06T03:07:22.694Z,42.95
2023-02-06T03:10:24.730Z,43.38
2023-02-06T03:13:33.814Z,49.13
2023-02-06T03:16:16.244Z,42.10
2023-02-06T03:19:18.483Z,45.67
2023-02-06T03:21:46.584Z,52.45
2023-02-06T03:24:26.473Z,48.35
2023-02-06T03:26:58.915Z,48.83
2023-02-06T03:29:27.080Z,51.78
2023-02-06T03:32:00.995Z,50.03
2023-02-06T03:34:40.318Z,50.85
2023-02-06T03:37:07.966Z,45.40
2023-02-06T03:39:36.773Z,42.08
2023-02-06T03:42:05.556Z,46.58
2023-02-06T03:44:36.072Z,49.03
2023-02-06T03:47:04.207Z,39.40
2023-02-06T03:49:33.071Z,47.40
2023-02-06T03:52:06.656Z,47.60
2023-02-06T03:54:36.398Z,47.80
2023-02-06T03:57:05.483Z,38.95
2023-02-06T04:00:05.494Z,47.63
2023-02-06T04:02:33.113Z,42.15
2023-02-06T04:05:00.607Z,44.70
2023-02-06T04:07:32.681Z,66.50
2023-02-06T04:10:00.196Z,42.80
2023-02-06T04:12:30.278Z,49.45
2023-02-06T04:14:57.879Z,56.22
2023-02-06T04:17:43.305Z,52.75
2023-02-06T04:20:13.517Z,44.28
2023-02-06T04:22:41.739Z,55.72
2023-02-06T04:25:09.499Z,53.33
2023-02-06T04:27:38.162Z,52.90
2023-02-06T04:30:06.548Z,42.95
2023-02-06T04:32:34.334Z,38.10
2023-02-06T04:35:05.206Z,45.13
2023-02-06T04:37:38.363Z,48.45
2023-02-06T04:40:10.378Z,42.65
2023-02-06T04:45:38.017Z,52.58
2023-02-06T04:48:09.959Z,57.03
2023-02-06T04:53:30.746Z,39.10
2023-02-06T04:56:12.635Z,48.13
2023-02-06T04:58:43.065Z,48.63
2023-02-06T05:01:11.525Z,47.65
2023-02-06T05:03:40.723Z,51.03
2023-02-06T05:06:08.929Z,49.63
2023-02-06T05:08:40.562Z,54.00
2023-02-06T05:11:07.976Z,57.97
2023-02-06T05:13:36.023Z,48.10
2023-02-06T05:16:19.057Z,56.25
2023-02-06T05:21:15.904Z,41.35
2023-02-06T05:23:44.674Z,41.53
2023-02-06T05:26:15.568Z,55.42
2023-02-06T05:28:51.241Z,65.00
2023-02-06T05:31:20.485Z,52.83
2023-02-06T05:33:53.236Z,48.58
2023-02-06T05:36:21.463Z,49.10
2023-02-06T05:38:49.503Z,53.47
2023-02-06T05:41:17.521Z,47.67
2023-02-06T05:43:44.937Z,50.38
2023-02-06T05:46:16.405Z,48.70
2023-02-06T05:48:44.046Z,54.90
2023-02-06T05:51:11.710Z,44.78
2023-02-06T05:53:39.083Z,43.00
2023-02-06T05:56:14.558Z,52.55
2023-02-06T05:58:48.288Z,62.05
2023-02-06T06:01:16.064Z,63.20
2023-02-06T06:03:46.305Z,39.88
2023-02-06T06:06:14.157Z,46.83
2023-02-06T06:08:41.859Z,63.58
2023-02-06T06:11:09.569Z,54.15
2023-02-06T06:13:40.020Z,48.25
2023-02-06T06:16:07.914Z,49.63
2023-02-06T06:18:35.293Z,67.90
2023-02-06T06:21:03.108Z,48.55
2023-02-06T06:23:30.770Z,44.15
2023-02-06T06:25:58.380Z,51.72
2023-02-06T06:28:29.008Z,58.70
2023-02-06T06:31:05.038Z,55.47
2023-02-06T06:33:32.965Z,50.28
2023-02-06T06:36:01.113Z,43.80
2023-02-06T06:38:32.009Z,46.38
2023-02-06T06:40:59.498Z,51.17
2023-02-06T06:43:27.049Z,34.63
2023-02-06T06:45:56.354Z,45.72
2023-02-06T06:48:23.930Z,55.08
2023-02-06T06:50:55.946Z,40.63
2023-02-06T06:53:26.560Z,48.93
2023-02-06T06:55:55.020Z,49.78
2023-02-06T06:58:26.727Z,47.65
2023-02-06T07:00:55.543Z,52.20
2023-02-06T07:03:23.253Z,59.40
2023-02-06T07:05:58.584Z,54.97
2023-02-06T07:08:26.854Z,44.75
2023-02-06T07:10:54.791Z,44.55
2023-02-06T07:13:23.245Z,48.92
2023-02-06T07:15:50.709Z,40.42
2023-02-06T07:18:18.311Z,36.97
2023-02-06T07:20:47.348Z,42.92
2023-02-06T07:23:19.796Z,44.70
2023-02-06T07:26:06.815Z,46.42
2023-02-06T07:28:36.562Z,40.95
2023-02-06T07:31:08.866Z,43.88
2023-02-06T07:33:37.690Z,43.83
2023-02-06T07:36:08.618Z,46.35
2023-02-06T07:38:37.365Z,46.40
2023-02-06T07:41:05.373Z,36.25
2023-02-06T07:43:33.560Z,54.28
2023-02-06T07:46:02.769Z,43.45
2023-02-06T07:48:33.193Z,43.97
2023-02-06T07:51:09.693Z,48.97
2023-02-06T07:53:39.857Z,46.10
2023-02-06T07:56:12.774Z,44.13
2023-02-06T08:01:08.504Z,43.85
2023-02-06T08:03:37.088Z,43.33
2023-02-06T08:06:09.721Z,49.90
2023-02-06T08:08:37.369Z,33.05
2023-02-06T08:11:10.080Z,55.50
2023-02-06T08:13:38.440Z,44.97
2023-02-06T08:16:07.860Z,41.83
2023-02-06T08:18:36.773Z,49.70
2023-02-06T08:21:16.809Z,45.72
2023-02-06T08:23:44.862Z,48.88
2023-02-06T08:26:19.406Z,42.75
2023-02-06T08:28:48.574Z,38.75
2023-02-06T08:31:20.342Z,44.50
2023-02-06T08:33:48.505Z,46.00
2023-02-06T08:36:18.060Z,43.35
2023-02-06T08:38:45.581Z,43.90
2023-02-06T08:41:25.539Z,53.38
2023-02-06T08:43:55.749Z,46.80
2023-02-06T08:46:25.140Z,52.50
2023-02-06T08:49:07.941Z,59.00
2023-02-06T08:51:36.327Z,51.88
2023-02-06T08:54:06.758Z,59.88
2023-02-06T08:56:36.239Z,61.83
2023-02-06T08:59:04.915Z,57.92
2023-02-06T09:01:34.092Z,52.90
2023-02-06T09:04:06.712Z,63.85
2023-02-06T09:06:36.210Z,51.33
2023-02-06T09:09:05.205Z,58.67
2023-02-06T09:11:32.906Z,52.38
2023-02-06T09:14:03.892Z,62.38
2023-02-06T09:16:33.581Z,56.10
2023-02-06T09:19:02.014Z,55.67
2023-02-06T09:21:31.585Z,50.42
2023-02-06T09:24:01.618Z,58.42
2023-02-06T09:26:38.948Z,49.78
2023-02-06T09:29:09.614Z,59.65
2023-02-06T09:31:39.894Z,47.60
2023-02-06T09:34:08.509Z,65.35
2023-02-06T09:36:38.145Z,51.08
2023-02-06T09:39:07.840Z,59.97
2023-02-06T09:41:44.241Z,62.80
2023-02-06T09:44:20.967Z,53.35
2023-02-06T09:46:53.768Z,53.22
2023-02-06T09:49:30.823Z,51.28
2023-02-06T09:52:21.926Z,48.38
2023-02-06T09:55:18.763Z,51.42
2023-02-06T09:57:48.230Z,59.20
2023-02-06T10:00:30.303Z,54.90
2023-02-06T10:03:04.977Z,48.08
2023-02-06T10:05:48.940Z,48.38
2023-02-06T10:08:20.654Z,50.67
2023-02-06T10:10:55.963Z,55.28
2023-02-06T10:13:57.549Z,42.85
2023-02-06T10:16:42.683Z,50.85
2023-02-06T10:19:17.063Z,45.33
2023-02-06T10:21:56.570Z,41.45
2023-02-06T10:24:49.291Z,48.53
2023-02-06T10:27:18.769Z,49.35
2023-02-06T10:29:49.401Z,48.67
2023-02-06T10:32:41.540Z,48.40
2023-02-06T10:35:30.310Z,41.50
2023-02-06T10:38:23.300Z,41.17
2023-02-06T10:41:00.551Z,47.55
2023-02-06T10:43:56.532Z,42.90
2023-02-06T10:46:29.796Z,49.72
2023-02-06T10:49:16.064Z,48.72
2023-02-06T10:51:48.350Z,44.58
2023-02-06T10:54:19.711Z,46.83
2023-02-06T10:56:48.200Z,50.72
2023-02-06T10:59:32.032Z,46.47
2023-02-06T11:02:24.503Z,37.75
2023-02-06T11:05:03.237Z,38.93
2023-02-06T11:07:42.921Z,42.05
2023-02-06T11:10:16.496Z,43.58
2023-02-06T11:12:47.933Z,52.72
2023-02-06T11:15:24.173Z,48.42
2023-02-06T11:17:53.295Z,42.33
2023-02-06T11:20:28.211Z,36.55
2023-02-06T11:22:55.545Z,44.60
2023-02-06T11:25:31.567Z,40.75
2023-02-06T11:28:00.222Z,37.58
2023-02-06T11:30:40.568Z,32.35
2023-02-06T11:33:22.166Z,43.63
2023-02-06T11:35:54.781Z,35.40
2023-02-06T11:38:28.062Z,32.88
2023-02-06T11:41:07.387Z,31.80
2023-02-06T11:43:43.943Z,34.08
2023-02-06T11:46:17.969Z,36.20
2023-02-06T11:49:01.007Z,45.53
2023-02-06T11:52:00.016Z,36.95
2023-02-06T11:54:28.552Z,30.05
2023-02-06T11:56:59.540Z,33.45
2023-02-06T11:59:27.760Z,35.08
2023-02-06T12:01:55.570Z,35.38
2023-02-06T12:04:39.696Z,32.63
2023-02-06T12:07:40.683Z,39.92
2023-02-06T12:10:16.520Z,29.10
2023-02-06T12:12:50.494Z,34.10
2023-02-06T12:15:46.442Z,31.65
2023-02-06T12:18:23.182Z,39.47
2023-02-06T12:20:59.504Z,47.65
2023-02-06T12:23:37.000Z,26.02
2023-02-06T12:26:22.584Z,28.00
2023-02-06T12:29:13.080Z,35.42
2023-02-06T12:31:56.311Z,37.05
2023-02-06T12:34:43.921Z,37.08
2023-02-06T12:37:45.789Z,33.60
2023-02-06T12:40:44.089Z,38.55
2023-02-06T12:43:14.319Z,37.78
2023-02-06T12:45:56.395Z,36.05
2023-02-06T12:48:35.751Z,33.90
2023-02-06T12:51:26.462Z,27.55
2023-02-06T12:53:55.167Z,35.13
2023-02-06T12:56:45.893Z,37.92
2023-02-06T12:59:32.069Z,40.22
2023-02-06T13:02:25.872Z,27.60
2023-02-06T13:04:53.791Z,39.08
2023-02-06T13:07:23.621Z,31.75
2023-02-06T13:10:05.031Z,38.55
2023-02-06T13:12:33.749Z,34.38
2023-02-06T13:15:05.712Z,30.30
2023-02-06T13:17:39.338Z,34.53
2023-02-06T13:20:08.872Z,33.05
2023-02-06T13:22:45.948Z,28.05
2023-02-06T13:25:25.903Z,30.48
2023-02-06T13:27:54.457Z,31.65
2023-02-06T13:30:27.771Z,24.88
2023-02-06T13:32:58.231Z,26.08
2023-02-06T13:35:29.566Z,24.98
2023-02-06T13:38:34.633Z,30.15
2023-02-06T13:41:14.325Z,25.83
2023-02-06T13:44:02.652Z,29.45
2023-02-06T13:46:54.688Z,26.67
2023-02-06T13:49:28.384Z,27.05
2023-02-06T13:52:06.587Z,30.15
2023-02-06T13:55:05.612Z,26.02
2023-02-06T13:57:51.234Z,30.10
2023-02-06T14:00:23.944Z,26.35
2023-02-06T14:02:56.391Z,24.58
2023-02-06T14:05:49.303Z,30.58
2023-02-06T14:09:02.655Z,23.48
2023-02-06T14:12:16.057Z,28.85
2023-02-06T14:14:55.419Z,26.02
2023-02-06T14:18:01.854Z,22.33
2023-02-06T14:20:48.857Z,27.27
2023-02-06T14:23:50.750Z,21.45
2023-02-06T14:26:22.890Z,24.52
2023-02-06T14:29:33.066Z,30.05
2023-02-06T14:32:17.354Z,25.67
2023-02-06T14:35:13.050Z,22.35
2023-02-06T14:37:57.921Z,20.58
2023-02-06T14:40:27.824Z,22.58
2023-02-06T14:42:58.946Z,33.15
2023-02-06T14:45:40.822Z,28.10
2023-02-06T14:48:39.224Z,24.00
2023-02-06T14:51:21.675Z,25.05
2023-02-06T14:54:21.669Z,26.40
2023-02-06T14:56:59.259Z,22.50
2023-02-06T14:59:26.959Z,31.98
2023-02-06T15:01:57.722Z,28.02
2023-02-06T15:04:34.488Z,26.50
2023-02-06T15:10:01.046Z,29.45
2023-02-06T15:12:30.179Z,29.20
2023-02-06T15:15:18.909Z,26.90
2023-02-06T15:18:30.562Z,24.80
2023-02-06T15:21:09.481Z,24.35
2023-02-06T15:23:50.657Z,21.55
2023-02-06T15:26:50.583Z,25.77
2023-02-06T15:29:27.112Z,24.13
2023-02-06T15:32:01.391Z,22.33
2023-02-06T15:52:19.687Z,26.00
2023-02-06T15:55:07.029Z,30.13
2023-02-06T15:58:07.633Z,27.77
2023-02-06T16:01:13.502Z,22.50
2023-02-06T16:03:52.318Z,20.92
2023-02-06T16:35:19.656Z,27.27
2023-02-06T16:37:52.855Z,22.90
2023-02-06T16:40:29.115Z,21.83
2023-02-06T16:43:03.392Z,24.17
2023-02-06T16:45:47.310Z,28.52
2023-02-06T16:48:24.596Z,24.63
2023-02-06T16:51:01.559Z,24.20
2023-02-06T16:53:35.478Z,26.40
2023-02-06T16:56:08.852Z,22.52
2023-02-06T16:58:46.442Z,36.10
2023-02-06T17:01:30.771Z,27.52
2023-02-06T17:04:00.571Z,30.40
2023-02-06T17:06:38.175Z,30.45
2023-02-06T17:09:13.058Z,26.92
2023-02-06T17:11:43.289Z,39.17
2023-02-06T17:14:18.093Z,30.35
2023-02-06T17:16:54.570Z,23.95
2023-02-06T17:19:31.394Z,34.35
2023-02-06T17:22:01.066Z,30.50
2023-02-06T17:24:34.484Z,26.52
2023-02-06T17:33:18.097Z,34.00
2023-02-06T17:50:31.419Z,34.20
2023-02-06T17:53:04.767Z,32.25
2023-02-06T17:55:43.853Z,26.40
2023-02-06T17:58:27.971Z,24.88
2023-02-06T18:00:59.669Z,27.73
2023-02-06T18:03:27.962Z,27.88
2023-02-06T18:09:21.017Z,28.98
2023-02-06T18:11:52.598Z,28.92
2023-02-06T18:17:37.620Z,32.33
2023-02-06T18:25:29.838Z,25.25
2023-02-06T18:28:07.309Z,31.08
2023-02-06T18:30:39.639Z,33.92
2023-02-06T18:33:13.531Z,23.63
2023-02-06T18:35:52.414Z,31.08
2023-02-06T18:38:27.839Z,33.38
2023-02-06T18:42:01.565Z,31.10
2023-02-06T18:45:34.334Z,31.75
2023-02-06T18:48:09.415Z,33.47
2023-02-06T18:50:47.004Z,21.30
2023-02-06T18:53:26.406Z,28.50
2023-02-06T18:56:28.490Z,26.65
2023-02-06T18:58:56.817Z,36.42
2023-02-06T19:01:35.594Z,35.10
2023-02-06T19:04:10.412Z,34.42
2023-02-06T19:06:52.953Z,27.65
2023-02-06T19:09:22.039Z,33.30
2023-02-06T19:12:10.106Z,30.70
2023-02-06T19:14:40.196Z,30.60
2023-02-06T19:17:07.869Z,25.95
2023-02-06T19:19:35.202Z,24.20
2023-02-06T19:22:05.100Z,29.20
2023-02-06T19:24:36.586Z,32.20
2023-02-06T19:27:04.412Z,34.10
2023-02-06T19:29:36.266Z,31.20
2023-02-06T19:32:06.117Z,36.72
2023-02-06T19:34:38.466Z,32.00
2023-02-06T19:37:09.514Z,33.17
2023-02-06T19:39:41.093Z,31.10
2023-02-06T19:42:13.416Z,32.80
2023-02-06T19:44:44.716Z,26.73
2023-02-06T19:47:12.425Z,37.13
2023-02-06T19:49:40.161Z,36.15
2023-02-06T19:52:10.013Z,36.47
2023-02-06T19:54:38.541Z,31.63
2023-02-06T19:57:06.041Z,30.90
2023-02-06T19:59:34.112Z,30.30
2023-02-06T20:02:02.491Z,32.65
2023-02-06T20:04:36.754Z,37.00
2023-02-06T20:07:04.508Z,34.17
2023-02-06T20:09:32.078Z,23.92
2023-02-06T20:11:59.850Z,28.27
2023-02-06T20:14:27.944Z,31.52
2023-02-06T20:16:56.920Z,40.92
2023-02-06T20:19:27.081Z,27.63
2023-02-06T20:21:57.820Z,30.05
2023-02-06T20:24:27.954Z,25.30
2023-02-06T20:26:59.980Z,31.63
2023-02-06T20:29:36.569Z,25.17
2023-02-06T20:32:05.804Z,27.08
2023-02-06T20:34:34.216Z,26.63
2023-02-06T20:37:01.957Z,34.50
2023-02-06T20:39:31.084Z,24.45
2023-02-06T20:41:58.916Z,26.35
2023-02-06T20:44:27.362Z,34.75
2023-02-06T20:49:39.198Z,33.03
2023-02-06T20:52:06.868Z,27.65
2023-02-06T20:54:34.490Z,32.10
2023-02-06T20:57:04.379Z,34.95
